Terminal Aerodrome Forecast
Issued by NWS Twin Cities, MN

Home | Current Version | Previous Version | Graphics & Text | Print | Product List | Glossary On
Versions: 1 2 3 4 5 6 7 8 9 10 11 12 13 14 15 16 17 18 19 20 21 22 23 24 25
000
FTUS43 KMPX 171100
TAFMSP
TAF
KMSP 171127Z 1712/1818 18004KT P6SM BKN060
     FM171600 VRB03KT P6SM SCT060
     FM172000 36005KT P6SM FEW060
     FM180200 05007KT P6SM SKC
     FM181200 10006KT P6SM SCT250=

USA.gov is the U.S. government's official web portal to all federal, state and local government web resources and services.